sensor_id;sensor_type;location;lat;lon;timestamp;temperature;humidity
6696;DHT22;3385;48.928;10.330;2023-06-24T00:01:24;15.70;99.90
6696;DHT22;3385;48.928;10.330;2023-06-24T00:03:50;15.70;99.90
6696;DHT22;3385;48.928;10.330;2023-06-24T00:06:19;15.70;99.90
6696;DHT22;3385;48.928;10.330;2023-06-24T00:08:46;15.70;99.90
6696;DHT22;3385;48.928;10.330;2023-06-24T00:11:12;15.60;99.90
6696;DHT22;3385;48.928;10.330;2023-06-24T00:13:39;15.60;99.90
6696;DHT22;3385;48.928;10.330;2023-06-24T00:16:05;15.70;99.90
6696;DHT22;3385;48.928;10.330;2023-06-24T00:18:33;15.60;99.90
6696;DHT22;3385;48.928;10.330;2023-06-24T00:20:58;15.60;99.90
6696;DHT22;3385;48.928;10.330;2023-06-24T00:23:24;15.60;99.90
6696;DHT22;3385;48.928;10.330;2023-06-24T00:25:54;15.80;99.90
6696;DHT22;3385;48.928;10.330;2023-06-24T00:28:23;15.70;99.90
6696;DHT22;3385;48.928;10.330;2023-06-24T00:30:49;15.80;99.90
6696;DHT22;3385;48.928;10.330;2023-06-24T00:33:15;15.70;99.90
6696;DHT22;3385;48.928;10.330;2023-06-24T00:35:45;15.70;99.90
6696;DHT22;3385;48.928;10.330;2023-06-24T00:38:11;15.80;99.90
6696;DHT22;3385;48.928;10.330;2023-06-24T00:40:37;15.90;99.90
6696;DHT22;3385;48.928;10.330;2023-06-24T00:43:05;16.00;99.90
6696;DHT22;3385;48.928;10.330;2023-06-24T00:45:31;16.10;99.90
6696;DHT22;3385;48.928;10.330;2023-06-24T00:48:00;16.20;99.90
6696;DHT22;3385;48.928;10.330;2023-06-24T00:50:28;16.10;99.90
6696;DHT22;3385;48.928;10.330;2023-06-24T00:52:54;16.30;99.90
6696;DHT22;3385;48.928;10.330;2023-06-24T00:55:20;16.40;99.90
6696;DHT22;3385;48.928;10.330;2023-06-24T00:57:49;16.10;99.90
6696;DHT22;3385;48.928;10.330;2023-06-24T01:00:21;16.10;99.90
6696;DHT22;3385;48.928;10.330;2023-06-24T01:02:48;16.00;99.90
6696;DHT22;3385;48.928;10.330;2023-06-24T01:05:14;16.10;99.90
6696;DHT22;3385;48.928;10.330;2023-06-24T01:07:41;16.00;99.90
6696;DHT22;3385;48.928;10.330;2023-06-24T01:10:10;15.80;99.90
6696;DHT22;3385;48.928;10.330;2023-06-24T01:12:39;15.70;99.90
6696;DHT22;3385;48.928;10.330;2023-06-24T01:15:09;15.70;99.90
6696;DHT22;3385;48.928;10.330;2023-06-24T01:29:40;15.50;99.90
6696;DHT22;3385;48.928;10.330;2023-06-24T01:32:37;15.50;99.90
6696;DHT22;3385;48.928;10.330;2023-06-24T01:35:28;15.70;99.90
6696;DHT22;3385;48.928;10.330;2023-06-24T01:37:57;15.80;99.90
6696;DHT22;3385;48.928;10.330;2023-06-24T01:40:32;15.60;99.90
6696;DHT22;3385;48.928;10.330;2023-06-24T01:43:01;15.70;99.90
6696;DHT22;3385;48.928;10.330;2023-06-24T01:45:36;15.70;99.90
6696;DHT22;3385;48.928;10.330;2023-06-24T01:48:11;15.60;99.90
6696;DHT22;3385;48.928;10.330;2023-06-24T01:50:39;15.40;99.90
6696;DHT22;3385;48.928;10.330;2023-06-24T01:53:08;15.30;99.90
6696;DHT22;3385;48.928;10.330;2023-06-24T01:55:35;15.30;99.90
6696;DHT22;3385;48.928;10.330;2023-06-24T01:58:05;15.30;99.90
6696;DHT22;3385;48.928;10.330;2023-06-24T02:00:33;15.00;99.90
6696;DHT22;3385;48.928;10.330;2023-06-24T02:03:01;15.00;99.90
6696;DHT22;3385;48.928;10.330;2023-06-24T02:05:27;14.80;99.90
6696;DHT22;3385;48.928;10.330;2023-06-24T02:07:54;14.70;99.90
6696;DHT22;3385;48.928;10.330;2023-06-24T02:10:22;14.50;99.90
6696;DHT22;3385;48.928;10.330;2023-06-24T02:12:51;14.50;99.90
6696;DHT22;3385;48.928;10.330;2023-06-24T02:15:19;14.30;99.90
6696;DHT22;3385;48.928;10.330;2023-06-24T02:17:49;14.50;99.90
6696;DHT22;3385;48.928;10.330;2023-06-24T02:20:16;14.10;99.90
6696;DHT22;3385;48.928;10.330;2023-06-24T02:22:44;14.20;99.90
6696;DHT22;3385;48.928;10.330;2023-06-24T02:25:09;14.10;99.90
6696;DHT22;3385;48.928;10.330;2023-06-24T02:27:36;14.20;99.90
6696;DHT22;3385;48.928;10.330;2023-06-24T02:30:04;14.10;99.90
6696;DHT22;3385;48.928;10.330;2023-06-24T02:32:30;14.00;99.90
6696;DHT22;3385;48.928;10.330;2023-06-24T02:34:57;14.20;99.90
6696;DHT22;3385;48.928;10.330;2023-06-24T02:37:24;14.00;99.90
6696;DHT22;3385;48.928;10.330;2023-06-24T02:39:50;14.00;99.90
6696;DHT22;3385;48.928;10.330;2023-06-24T02:42:16;14.10;99.90
6696;DHT22;3385;48.928;10.330;2023-06-24T02:44:42;14.00;99.90
6696;DHT22;3385;48.928;10.330;2023-06-24T02:47:10;14.00;99.90
6696;DHT22;3385;48.928;10.330;2023-06-24T02:49:37;13.90;99.90
6696;DHT22;3385;48.928;10.330;2023-06-24T02:52:05;13.80;99.90
6696;DHT22;3385;48.928;10.330;2023-06-24T02:54:31;13.70;99.90
6696;DHT22;3385;48.928;10.330;2023-06-24T02:56:58;13.70;99.90
6696;DHT22;3385;48.928;10.330;2023-06-24T02:59:24;13.60;99.90
6696;DHT22;3385;48.928;10.330;2023-06-24T03:01:51;13.50;99.90
6696;DHT22;3385;48.928;10.330;2023-06-24T03:04:18;13.50;99.90
6696;DHT22;3385;48.928;10.330;2023-06-24T03:06:45;13.50;99.90
6696;DHT22;3385;48.928;10.330;2023-06-24T03:09:11;13.60;99.90
6696;DHT22;3385;48.928;10.330;2023-06-24T03:11:44;13.40;99.90
6696;DHT22;3385;48.928;10.330;2023-06-24T03:14:10;13.30;99.90
6696;DHT22;3385;48.928;10.330;2023-06-24T03:16:37;13.50;99.90
6696;DHT22;3385;48.928;10.330;2023-06-24T03:19:06;13.30;99.90
6696;DHT22;3385;48.928;10.330;2023-06-24T03:21:32;13.20;99.90
6696;DHT22;3385;48.928;10.330;2023-06-24T03:23:57;13.20;99.90
6696;DHT22;3385;48.928;10.330;2023-06-24T03:26:31;13.10;99.90
6696;DHT22;3385;48.928;10.330;2023-06-24T03:28:58;13.10;99.90
6696;DHT22;3385;48.928;10.330;2023-06-24T03:31:23;13.20;99.90
6696;DHT22;3385;48.928;10.330;2023-06-24T03:33:49;13.10;99.90
6696;DHT22;3385;48.928;10.330;2023-06-24T03:36:15;13.20;99.90
6696;DHT22;3385;48.928;10.330;2023-06-24T03:38:41;13.20;99.90
6696;DHT22;3385;48.928;10.330;2023-06-24T03:41:06;13.30;99.90
6696;DHT22;3385;48.928;10.330;2023-06-24T03:43:32;13.20;99.90
6696;DHT22;3385;48.928;10.330;2023-06-24T03:45:58;13.20;99.90
6696;DHT22;3385;48.928;10.330;2023-06-24T03:48:25;13.10;99.90
6696;DHT22;3385;48.928;10.330;2023-06-24T03:50:51;13.10;99.90
6696;DHT22;3385;48.928;10.330;2023-06-24T03:53:16;13.20;99.90
6696;DHT22;3385;48.928;10.330;2023-06-24T03:55:42;13.30;99.90
6696;DHT22;3385;48.928;10.330;2023-06-24T03:58:08;13.20;99.90
6696;DHT22;3385;48.928;10.330;2023-06-24T04:00:34;13.00;99.90
6696;DHT22;3385;48.928;10.330;2023-06-24T04:03:04;13.20;99.90
6696;DHT22;3385;48.928;10.330;2023-06-24T04:05:30;12.90;99.90
6696;DHT22;3385;48.928;10.330;2023-06-24T04:07:56;13.40;99.90
6696;DHT22;3385;48.928;10.330;2023-06-24T04:10:21;13.20;99.90
6696;DHT22;3385;48.928;10.330;2023-06-24T04:12:47;13.20;99.90
6696;DHT22;3385;48.928;10.330;2023-06-24T04:15:13;13.20;99.90
6696;DHT22;3385;48.928;10.330;2023-06-24T04:17:39;13.20;99.90
6696;DHT22;3385;48.928;10.330;2023-06-24T04:20:05;13.30;99.90
6696;DHT22;3385;48.928;10.330;2023-06-24T04:22:38;16.50;99.90
6696;DHT22;3385;48.928;10.330;2023-06-24T04:25:08;13.40;99.90
6696;DHT22;3385;48.928;10.330;2023-06-24T04:27:34;13.60;99.90
6696;DHT22;3385;48.928;10.330;2023-06-24T04:30:00;13.60;99.90
6696;DHT22;3385;48.928;10.330;2023-06-24T04:32:26;13.60;99.90
6696;DHT22;3385;48.928;10.330;2023-06-24T04:34:52;13.70;99.90
6696;DHT22;3385;48.928;10.330;2023-06-24T04:37:19;13.90;99.90
6696;DHT22;3385;48.928;10.330;2023-06-24T04:39:44;14.00;99.90
6696;DHT22;3385;48.928;10.330;2023-06-24T04:42:11;14.00;99.90
6696;DHT22;3385;48.928;10.330;2023-06-24T04:44:37;14.00;99.90
6696;DHT22;3385;48.928;10.330;2023-06-24T04:47:03;14.10;99.90
6696;DHT22;3385;48.928;10.330;2023-06-24T04:49:29;14.30;99.90
6696;DHT22;3385;48.928;10.330;2023-06-24T04:51:54;14.10;99.90
6696;DHT22;3385;48.928;10.330;2023-06-24T04:54:20;14.20;99.90
6696;DHT22;3385;48.928;10.330;2023-06-24T04:56:46;14.00;99.90
6696;DHT22;3385;48.928;10.330;2023-06-24T04:59:14;14.40;99.90
6696;DHT22;3385;48.928;10.330;2023-06-24T05:01:40;14.50;99.90
6696;DHT22;3385;48.928;10.330;2023-06-24T05:04:05;14.40;99.90
6696;DHT22;3385;48.928;10.330;2023-06-24T05:06:31;14.60;99.90
6696;DHT22;3385;48.928;10.330;2023-06-24T05:08:57;14.90;99.90
6696;DHT22;3385;48.928;10.330;2023-06-24T05:11:22;14.80;99.90
6696;DHT22;3385;48.928;10.330;2023-06-24T05:13:48;14.90;99.90
6696;DHT22;3385;48.928;10.330;2023-06-24T05:16:14;15.20;99.90
6696;DHT22;3385;48.928;10.330;2023-06-24T05:18:40;15.30;99.90
6696;DHT22;3385;48.928;10.330;2023-06-24T05:21:05;15.40;99.90
6696;DHT22;3385;48.928;10.330;2023-06-24T05:23:31;15.50;99.90
6696;DHT22;3385;48.928;10.330;2023-06-24T05:25:57;15.60;99.90
6696;DHT22;3385;48.928;10.330;2023-06-24T05:28:22;15.70;99.90
6696;DHT22;3385;48.928;10.330;2023-06-24T05:30:48;15.80;99.90
6696;DHT22;3385;48.928;10.330;2023-06-24T05:33:14;15.80;99.90
6696;DHT22;3385;48.928;10.330;2023-06-24T05:35:42;15.90;99.90
6696;DHT22;3385;48.928;10.330;2023-06-24T05:38:08;16.00;99.90
6696;DHT22;3385;48.928;10.330;2023-06-24T05:40:33;16.00;99.90
6696;DHT22;3385;48.928;10.330;2023-06-24T05:42:59;16.30;99.90
6696;DHT22;3385;48.928;10.330;2023-06-24T05:45:26;16.30;99.90
6696;DHT22;3385;48.928;10.330;2023-06-24T05:47:52;16.40;99.90
6696;DHT22;3385;48.928;10.330;2023-06-24T05:50:18;16.70;99.90
6696;DHT22;3385;48.928;10.330;2023-06-24T05:52:43;16.80;99.90
6696;DHT22;3385;48.928;10.330;2023-06-24T05:55:09;16.80;99.90
6696;DHT22;3385;48.928;10.330;2023-06-24T05:57:35;16.90;99.90
6696;DHT22;3385;48.928;10.330;2023-06-24T06:00:01;17.00;99.90
6696;DHT22;3385;48.928;10.330;2023-06-24T06:02:29;17.10;99.90
6696;DHT22;3385;48.928;10.330;2023-06-24T06:04:54;17.20;99.90
6696;DHT22;3385;48.928;10.330;2023-06-24T06:07:20;17.30;99.90
6696;DHT22;3385;48.928;10.330;2023-06-24T06:09:46;17.40;99.90
6696;DHT22;3385;48.928;10.330;2023-06-24T06:12:11;17.40;99.90
6696;DHT22;3385;48.928;10.330;2023-06-24T06:14:37;17.60;99.90
6696;DHT22;3385;48.928;10.330;2023-06-24T06:17:03;17.70;99.90
6696;DHT22;3385;48.928;10.330;2023-06-24T06:19:29;17.70;99.90
6696;DHT22;3385;48.928;10.330;2023-06-24T06:21:54;17.70;99.90
6696;DHT22;3385;48.928;10.330;2023-06-24T06:24:20;17.90;99.90
6696;DHT22;3385;48.928;10.330;2023-06-24T06:26:46;17.80;99.90
6696;DHT22;3385;48.928;10.330;2023-06-24T06:29:12;18.00;99.90
6696;DHT22;3385;48.928;10.330;2023-06-24T06:31:38;18.10;99.90
6696;DHT22;3385;48.928;10.330;2023-06-24T06:34:04;18.10;99.90
6696;DHT22;3385;48.928;10.330;2023-06-24T06:36:31;18.20;99.90
6696;DHT22;3385;48.928;10.330;2023-06-24T06:38:56;18.40;99.90
6696;DHT22;3385;48.928;10.330;2023-06-24T06:41:22;18.40;99.90
6696;DHT22;3385;48.928;10.330;2023-06-24T06:43:53;18.60;99.90
6696;DHT22;3385;48.928;10.330;2023-06-24T06:46:19;18.70;99.90
6696;DHT22;3385;48.928;10.330;2023-06-24T06:48:45;19.00;99.90
6696;DHT22;3385;48.928;10.330;2023-06-24T06:51:12;19.10;99.90
6696;DHT22;3385;48.928;10.330;2023-06-24T06:53:38;19.20;99.90
6696;DHT22;3385;48.928;10.330;2023-06-24T06:56:04;19.10;99.90
6696;DHT22;3385;48.928;10.330;2023-06-24T06:58:29;19.10;99.90
6696;DHT22;3385;48.928;10.330;2023-06-24T07:00:55;19.20;99.90
6696;DHT22;3385;48.928;10.330;2023-06-24T07:03:21;19.30;99.90
6696;DHT22;3385;48.928;10.330;2023-06-24T07:05:47;19.30;99.90
6696;DHT22;3385;48.928;10.330;2023-06-24T07:08:13;19.30;99.90
6696;DHT22;3385;48.928;10.330;2023-06-24T07:10:38;19.50;99.90
6696;DHT22;3385;48.928;10.330;2023-06-24T07:13:04;19.60;99.90
6696;DHT22;3385;48.928;10.330;2023-06-24T07:15:30;20.10;99.90
6696;DHT22;3385;48.928;10.330;2023-06-24T07:17:55;19.70;99.90
6696;DHT22;3385;48.928;10.330;2023-06-24T07:20:22;19.80;99.90
6696;DHT22;3385;48.928;10.330;2023-06-24T07:22:47;19.80;99.90
6696;DHT22;3385;48.928;10.330;2023-06-24T07:25:13;19.90;99.90
6696;DHT22;3385;48.928;10.330;2023-06-24T07:27:39;20.00;99.90
6696;DHT22;3385;48.928;10.330;2023-06-24T07:30:05;20.00;99.90
6696;DHT22;3385;48.928;10.330;2023-06-24T07:32:31;20.00;99.90
6696;DHT22;3385;48.928;10.330;2023-06-24T07:34:57;20.10;99.90
6696;DHT22;3385;48.928;10.330;2023-06-24T07:37:23;20.10;99.90
6696;DHT22;3385;48.928;10.330;2023-06-24T07:39:48;20.20;99.90
6696;DHT22;3385;48.928;10.330;2023-06-24T07:42:14;20.30;99.90
6696;DHT22;3385;48.928;10.330;2023-06-24T07:44:48;20.40;99.90
6696;DHT22;3385;48.928;10.330;2023-06-24T07:47:16;20.60;99.90
6696;DHT22;3385;48.928;10.330;2023-06-24T07:49:41;20.70;99.90
6696;DHT22;3385;48.928;10.330;2023-06-24T07:52:07;20.80;99.90
6696;DHT22;3385;48.928;10.330;2023-06-24T07:54:34;20.60;99.90
6696;DHT22;3385;48.928;10.330;2023-06-24T07:56:59;20.80;99.90
6696;DHT22;3385;48.928;10.330;2023-06-24T07:59:25;20.70;99.90
6696;DHT22;3385;48.928;10.330;2023-06-24T08:01:51;20.70;99.90
6696;DHT22;3385;48.928;10.330;2023-06-24T08:04:16;20.70;99.90
6696;DHT22;3385;48.928;10.330;2023-06-24T08:06:42;20.90;99.90
6696;DHT22;3385;48.928;10.330;2023-06-24T08:09:08;20.80;99.90
6696;DHT22;3385;48.928;10.330;2023-06-24T08:11:34;20.90;99.90
6696;DHT22;3385;48.928;10.330;2023-06-24T08:13:59;21.00;99.90
6696;DHT22;3385;48.928;10.330;2023-06-24T08:16:27;21.10;99.90
6696;DHT22;3385;48.928;10.330;2023-06-24T08:18:53;21.20;99.90
6696;DHT22;3385;48.928;10.330;2023-06-24T08:21:19;21.50;99.90
6696;DHT22;3385;48.928;10.330;2023-06-24T08:23:45;21.60;99.90
6696;DHT22;3385;48.928;10.330;2023-06-24T08:26:11;21.80;99.90
6696;DHT22;3385;48.928;10.330;2023-06-24T08:28:36;21.80;99.90
6696;DHT22;3385;48.928;10.330;2023-06-24T08:31:02;21.80;99.90
6696;DHT22;3385;48.928;10.330;2023-06-24T08:33:28;21.80;99.90
6696;DHT22;3385;48.928;10.330;2023-06-24T08:35:53;22.10;99.90
6696;DHT22;3385;48.928;10.330;2023-06-24T08:38:19;22.20;99.90
6696;DHT22;3385;48.928;10.330;2023-06-24T08:40:46;22.50;99.90
6696;DHT22;3385;48.928;10.330;2023-06-24T08:43:14;22.80;99.90
6696;DHT22;3385;48.928;10.330;2023-06-24T08:45:40;22.90;99.90
6696;DHT22;3385;48.928;10.330;2023-06-24T08:48:06;23.10;99.90
6696;DHT22;3385;48.928;10.330;2023-06-24T08:50:35;23.10;99.90
6696;DHT22;3385;48.928;10.330;2023-06-24T08:53:05;23.00;99.90
6696;DHT22;3385;48.928;10.330;2023-06-24T08:55:36;23.10;99.90
6696;DHT22;3385;48.928;10.330;2023-06-24T08:58:05;23.10;99.90
6696;DHT22;3385;48.928;10.330;2023-06-24T09:00:31;23.20;99.90
6696;DHT22;3385;48.928;10.330;2023-06-24T09:02:56;23.10;99.90
6696;DHT22;3385;48.928;10.330;2023-06-24T09:05:23;23.10;99.90
6696;DHT22;3385;48.928;10.330;2023-06-24T09:07:49;22.90;99.90
6696;DHT22;3385;48.928;10.330;2023-06-24T09:10:33;22.70;99.90
6696;DHT22;3385;48.928;10.330;2023-06-24T09:13:06;22.70;99.90
6696;DHT22;3385;48.928;10.330;2023-06-24T09:15:33;22.90;99.90
6696;DHT22;3385;48.928;10.330;2023-06-24T09:17:59;23.40;99.90
6696;DHT22;3385;48.928;10.330;2023-06-24T09:20:30;23.50;99.90
6696;DHT22;3385;48.928;10.330;2023-06-24T09:23:01;23.60;99.90
6696;DHT22;3385;48.928;10.330;2023-06-24T09:25:27;23.90;99.90
6696;DHT22;3385;48.928;10.330;2023-06-24T09:27:53;23.90;99.90
6696;DHT22;3385;48.928;10.330;2023-06-24T09:30:23;23.90;99.90
6696;DHT22;3385;48.928;10.330;2023-06-24T09:32:49;24.00;99.90
6696;DHT22;3385;48.928;10.330;2023-06-24T09:35:18;24.30;99.90
6696;DHT22;3385;48.928;10.330;2023-06-24T09:37:52;24.30;99.90
6696;DHT22;3385;48.928;10.330;2023-06-24T09:40:19;24.30;99.90
6696;DHT22;3385;48.928;10.330;2023-06-24T09:45:14;24.50;99.90
6696;DHT22;3385;48.928;10.330;2023-06-24T09:47:40;24.70;99.90
6696;DHT22;3385;48.928;10.330;2023-06-24T09:50:06;24.60;99.90
6696;DHT22;3385;48.928;10.330;2023-06-24T09:52:33;24.40;99.90
6696;DHT22;3385;48.928;10.330;2023-06-24T09:55:01;24.20;99.90
6696;DHT22;3385;48.928;10.330;2023-06-24T09:57:31;23.90;99.90
6696;DHT22;3385;48.928;10.330;2023-06-24T09:59:58;23.70;99.90
6696;DHT22;3385;48.928;10.330;2023-06-24T10:02:24;23.70;99.90
6696;DHT22;3385;48.928;10.330;2023-06-24T10:04:52;24.00;99.90
6696;DHT22;3385;48.928;10.330;2023-06-24T10:07:18;24.00;99.90
6696;DHT22;3385;48.928;10.330;2023-06-24T10:09:44;24.10;99.90
6696;DHT22;3385;48.928;10.330;2023-06-24T10:12:10;24.30;99.90
6696;DHT22;3385;48.928;10.330;2023-06-24T10:14:36;24.50;99.90
6696;DHT22;3385;48.928;10.330;2023-06-24T10:17:03;25.00;99.90
6696;DHT22;3385;48.928;10.330;2023-06-24T10:19:29;25.10;99.90
6696;DHT22;3385;48.928;10.330;2023-06-24T10:21:58;25.30;99.90
6696;DHT22;3385;48.928;10.330;2023-06-24T10:24:36;25.40;99.90
6696;DHT22;3385;48.928;10.330;2023-06-24T10:27:03;25.50;99.90
6696;DHT22;3385;48.928;10.330;2023-06-24T10:29:38;25.50;99.90
6696;DHT22;3385;48.928;10.330;2023-06-24T10:32:05;25.10;99.90
6696;DHT22;3385;48.928;10.330;2023-06-24T10:34:38;24.90;99.90
6696;DHT22;3385;48.928;10.330;2023-06-24T10:37:11;24.90;99.90
6696;DHT22;3385;48.928;10.330;2023-06-24T10:40:06;24.90;99.90
6696;DHT22;3385;48.928;10.330;2023-06-24T10:42:32;25.20;99.90
6696;DHT22;3385;48.928;10.330;2023-06-24T10:45:20;25.80;99.90
6696;DHT22;3385;48.928;10.330;2023-06-24T10:47:50;26.10;99.90
6696;DHT22;3385;48.928;10.330;2023-06-24T10:50:22;25.80;99.90
6696;DHT22;3385;48.928;10.330;2023-06-24T10:52:51;25.50;99.90
6696;DHT22;3385;48.928;10.330;2023-06-24T10:55:25;25.50;99.90
6696;DHT22;3385;48.928;10.330;2023-06-24T10:57:51;25.50;99.90
6696;DHT22;3385;48.928;10.330;2023-06-24T11:00:17;25.60;99.90
6696;DHT22;3385;48.928;10.330;2023-06-24T11:02:44;25.40;99.90
6696;DHT22;3385;48.928;10.330;2023-06-24T11:05:10;24.90;99.90
6696;DHT22;3385;48.928;10.330;2023-06-24T11:07:38;25.10;99.90
6696;DHT22;3385;48.928;10.330;2023-06-24T11:10:10;25.50;99.90
6696;DHT22;3385;48.928;10.330;2023-06-24T11:12:38;25.40;99.90
6696;DHT22;3385;48.928;10.330;2023-06-24T11:15:09;25.30;99.90
6696;DHT22;3385;48.928;10.330;2023-06-24T11:17:35;25.20;99.90
6696;DHT22;3385;48.928;10.330;2023-06-24T11:20:02;25.20;99.90
6696;DHT22;3385;48.928;10.330;2023-06-24T11:22:31;25.20;99.90
6696;DHT22;3385;48.928;10.330;2023-06-24T11:24:57;25.10;99.90
6696;DHT22;3385;48.928;10.330;2023-06-24T11:27:26;25.20;99.90
6696;DHT22;3385;48.928;10.330;2023-06-24T11:29:53;25.30;99.90
6696;DHT22;3385;48.928;10.330;2023-06-24T11:32:19;25.90;99.90
6696;DHT22;3385;48.928;10.330;2023-06-24T11:34:45;26.40;99.90
6696;DHT22;3385;48.928;10.330;2023-06-24T11:37:13;26.90;99.90
6696;DHT22;3385;48.928;10.330;2023-06-24T11:39:39;27.70;99.90
6696;DHT22;3385;48.928;10.330;2023-06-24T11:42:08;27.70;99.90
6696;DHT22;3385;48.928;10.330;2023-06-24T11:44:34;27.40;99.90
6696;DHT22;3385;48.928;10.330;2023-06-24T11:47:08;27.50;99.90
6696;DHT22;3385;48.928;10.330;2023-06-24T11:49:50;27.70;99.90
6696;DHT22;3385;48.928;10.330;2023-06-24T11:52:16;27.50;99.90
6696;DHT22;3385;48.928;10.330;2023-06-24T11:54:41;27.40;99.90
6696;DHT22;3385;48.928;10.330;2023-06-24T11:57:09;27.00;99.90
6696;DHT22;3385;48.928;10.330;2023-06-24T11:59:35;26.70;99.90
6696;DHT22;3385;48.928;10.330;2023-06-24T12:02:01;27.30;99.90
6696;DHT22;3385;48.928;10.330;2023-06-24T12:04:30;28.20;99.90
6696;DHT22;3385;48.928;10.330;2023-06-24T12:06:59;29.10;99.90
6696;DHT22;3385;48.928;10.330;2023-06-24T12:09:25;29.60;99.90
6696;DHT22;3385;48.928;10.330;2023-06-24T12:11:52;30.50;99.90
6696;DHT22;3385;48.928;10.330;2023-06-24T12:14:18;31.60;99.90
6696;DHT22;3385;48.928;10.330;2023-06-24T12:16:44;32.40;99.90
6696;DHT22;3385;48.928;10.330;2023-06-24T12:19:10;32.80;99.90
6696;DHT22;3385;48.928;10.330;2023-06-24T12:21:37;32.60;99.90
6696;DHT22;3385;48.928;10.330;2023-06-24T12:24:04;32.50;99.90
6696;DHT22;3385;48.928;10.330;2023-06-24T12:26:31;31.90;99.90
6696;DHT22;3385;48.928;10.330;2023-06-24T12:28:57;31.30;99.90
6696;DHT22;3385;48.928;10.330;2023-06-24T12:31:24;30.60;99.90
6696;DHT22;3385;48.928;10.330;2023-06-24T12:33:51;30.60;99.90
6696;DHT22;3385;48.928;10.330;2023-06-24T12:36:18;30.50;99.90
6696;DHT22;3385;48.928;10.330;2023-06-24T12:38:44;31.00;99.90
6696;DHT22;3385;48.928;10.330;2023-06-24T12:41:09;31.80;99.90
6696;DHT22;3385;48.928;10.330;2023-06-24T12:43:35;32.60;99.90
6696;DHT22;3385;48.928;10.330;2023-06-24T12:46:01;33.10;99.90
6696;DHT22;3385;48.928;10.330;2023-06-24T12:48:27;33.50;99.90
6696;DHT22;3385;48.928;10.330;2023-06-24T12:50:52;33.20;99.90
6696;DHT22;3385;48.928;10.330;2023-06-24T12:53:22;32.20;99.90
6696;DHT22;3385;48.928;10.330;2023-06-24T12:55:47;32.10;99.90
6696;DHT22;3385;48.928;10.330;2023-06-24T12:58:14;33.40;99.90
6696;DHT22;3385;48.928;10.330;2023-06-24T13:00:43;35.00;99.90
6696;DHT22;3385;48.928;10.330;2023-06-24T13:03:09;36.10;99.90
6696;DHT22;3385;48.928;10.330;2023-06-24T13:05:35;37.10;99.90
6696;DHT22;3385;48.928;10.330;2023-06-24T13:08:01;37.30;99.90
6696;DHT22;3385;48.928;10.330;2023-06-24T13:10:26;37.80;99.90
6696;DHT22;3385;48.928;10.330;2023-06-24T13:12:52;38.40;99.90
6696;DHT22;3385;48.928;10.330;2023-06-24T13:15:18;38.20;99.90
6696;DHT22;3385;48.928;10.330;2023-06-24T13:17:44;37.90;99.90
6696;DHT22;3385;48.928;10.330;2023-06-24T13:20:10;36.80;99.90
6696;DHT22;3385;48.928;10.330;2023-06-24T13:22:36;34.90;99.90
6696;DHT22;3385;48.928;10.330;2023-06-24T13:25:02;33.60;99.90
6696;DHT22;3385;48.928;10.330;2023-06-24T13:27:28;33.30;99.90
6696;DHT22;3385;48.928;10.330;2023-06-24T13:29:54;31.30;99.90
6696;DHT22;3385;48.928;10.330;2023-06-24T13:32:19;30.10;99.90
6696;DHT22;3385;48.928;10.330;2023-06-24T13:34:45;29.30;99.90
6696;DHT22;3385;48.928;10.330;2023-06-24T13:37:11;28.70;99.90
6696;DHT22;3385;48.928;10.330;2023-06-24T13:39:37;29.40;99.90
6696;DHT22;3385;48.928;10.330;2023-06-24T13:42:02;31.30;99.90
6696;DHT22;3385;48.928;10.330;2023-06-24T13:44:28;32.90;99.90
6696;DHT22;3385;48.928;10.330;2023-06-24T13:46:54;33.80;99.90
6696;DHT22;3385;48.928;10.330;2023-06-24T13:49:20;35.00;99.90
6696;DHT22;3385;48.928;10.330;2023-06-24T13:51:45;35.70;99.90
6696;DHT22;3385;48.928;10.330;2023-06-24T13:54:11;36.30;99.90
6696;DHT22;3385;48.928;10.330;2023-06-24T13:56:37;36.00;99.90
6696;DHT22;3385;48.928;10.330;2023-06-24T13:59:03;35.90;99.90
6696;DHT22;3385;48.928;10.330;2023-06-24T14:01:29;36.40;99.90
6696;DHT22;3385;48.928;10.330;2023-06-24T14:03:55;36.80;99.90
6696;DHT22;3385;48.928;10.330;2023-06-24T14:06:22;36.70;99.90
6696;DHT22;3385;48.928;10.330;2023-06-24T14:08:49;37.00;99.90
6696;DHT22;3385;48.928;10.330;2023-06-24T14:11:15;36.30;99.90
6696;DHT22;3385;48.928;10.330;2023-06-24T14:13:42;36.00;99.90
6696;DHT22;3385;48.928;10.330;2023-06-24T14:16:09;36.20;99.90
6696;DHT22;3385;48.928;10.330;2023-06-24T14:18:43;35.20;99.90
6696;DHT22;3385;48.928;10.330;2023-06-24T14:21:12;35.40;99.90
6696;DHT22;3385;48.928;10.330;2023-06-24T14:23:37;35.70;99.90
6696;DHT22;3385;48.928;10.330;2023-06-24T14:26:05;36.30;99.90
6696;DHT22;3385;48.928;10.330;2023-06-24T14:28:31;36.10;99.90
6696;DHT22;3385;48.928;10.330;2023-06-24T14:30:57;35.70;99.90
6696;DHT22;3385;48.928;10.330;2023-06-24T14:33:22;35.00;99.90
6696;DHT22;3385;48.928;10.330;2023-06-24T14:35:48;34.60;99.90
6696;DHT22;3385;48.928;10.330;2023-06-24T14:38:14;33.30;99.90
6696;DHT22;3385;48.928;10.330;2023-06-24T14:40:39;33.40;99.90
6696;DHT22;3385;48.928;10.330;2023-06-24T14:43:05;32.40;99.90
6696;DHT22;3385;48.928;10.330;2023-06-24T14:45:31;31.10;99.90
6696;DHT22;3385;48.928;10.330;2023-06-24T14:47:58;30.10;99.90
6696;DHT22;3385;48.928;10.330;2023-06-24T14:50:24;29.20;99.90
6696;DHT22;3385;48.928;10.330;2023-06-24T14:52:50;28.40;99.90
6696;DHT22;3385;48.928;10.330;2023-06-24T14:55:16;28.10;99.90
6696;DHT22;3385;48.928;10.330;2023-06-24T14:57:42;28.30;99.90
6696;DHT22;3385;48.928;10.330;2023-06-24T15:00:09;29.30;99.90
6696;DHT22;3385;48.928;10.330;2023-06-24T15:02:35;30.50;99.90
6696;DHT22;3385;48.928;10.330;2023-06-24T15:05:01;31.20;99.90
6696;DHT22;3385;48.928;10.330;2023-06-24T15:07:27;31.10;99.90
6696;DHT22;3385;48.928;10.330;2023-06-24T15:09:53;31.40;99.90
6696;DHT22;3385;48.928;10.330;2023-06-24T15:12:19;31.50;99.90
6696;DHT22;3385;48.928;10.330;2023-06-24T15:14:45;32.00;99.90
6696;DHT22;3385;48.928;10.330;2023-06-24T15:17:11;32.50;99.90
6696;DHT22;3385;48.928;10.330;2023-06-24T15:19:37;33.00;99.90
6696;DHT22;3385;48.928;10.330;2023-06-24T15:22:03;32.60;99.90
6696;DHT22;3385;48.928;10.330;2023-06-24T15:24:29;31.40;99.90
6696;DHT22;3385;48.928;10.330;2023-06-24T15:26:56;31.30;99.90
6696;DHT22;3385;48.928;10.330;2023-06-24T15:29:22;30.80;99.90
6696;DHT22;3385;48.928;10.330;2023-06-24T15:31:48;30.00;99.90
6696;DHT22;3385;48.928;10.330;2023-06-24T15:34:14;29.30;99.90
6696;DHT22;3385;48.928;10.330;2023-06-24T15:36:40;28.70;99.90
6696;DHT22;3385;48.928;10.330;2023-06-24T15:39:06;28.20;99.90
6696;DHT22;3385;48.928;10.330;2023-06-24T15:41:32;28.70;99.90
6696;DHT22;3385;48.928;10.330;2023-06-24T15:43:57;29.50;99.90
6696;DHT22;3385;48.928;10.330;2023-06-24T15:46:23;30.10;99.90
6696;DHT22;3385;48.928;10.330;2023-06-24T15:48:49;30.20;99.90
6696;DHT22;3385;48.928;10.330;2023-06-24T15:51:15;30.60;99.90
6696;DHT22;3385;48.928;10.330;2023-06-24T15:53:41;31.20;99.90
6696;DHT22;3385;48.928;10.330;2023-06-24T15:56:06;31.30;99.90
6696;DHT22;3385;48.928;10.330;2023-06-24T15:58:32;31.50;99.90